Terminal Aerodrome Forecast
Issued by NWS

Home | Current Version | Previous Version | Text Only | Print | Product List | Glossary On
Versions: 1 2 3 4 5 6 7 8 9 10 11 12 13 14 15 16
000
FTUS41 KPBZ 041722
TAFZZV
TAF
KZZV 041722Z 0418/0518 11008KT P6SM BKN100
     FM050000 09004KT P6SM VCSH OVC030
     FM050300 13004KT 2SM -RA OVC015
     FM050500 21005KT P6SM -RA OVC008
     FM050800 26008KT P6SM BKN012
     FM051600 30004KT P6SM BKN035=

USA.gov is the U.S. government's official web portal to all federal, state and local government web resources and services.